sensor_id;sensor_type;location;lat;lon;timestamp;temperature;humidity
20658;DHT22;10488;50.846;4.078;2023-02-01T00:00:50;7.30;99.90
20658;DHT22;10488;50.846;4.078;2023-02-01T00:03:17;7.50;99.90
20658;DHT22;10488;50.846;4.078;2023-02-01T00:05:55;7.50;99.90
20658;DHT22;10488;50.846;4.078;2023-02-01T00:08:21;7.60;99.90
20658;DHT22;10488;50.846;4.078;2023-02-01T00:10:48;7.60;99.90
20658;DHT22;10488;50.846;4.078;2023-02-01T00:13:14;7.50;99.90
20658;DHT22;10488;50.846;4.078;2023-02-01T00:15:41;7.50;99.90
20658;DHT22;10488;50.846;4.078;2023-02-01T00:18:07;7.50;99.90
20658;DHT22;10488;50.846;4.078;2023-02-01T00:20:34;7.50;99.90
20658;DHT22;10488;50.846;4.078;2023-02-01T00:23:01;7.50;99.90
20658;DHT22;10488;50.846;4.078;2023-02-01T00:25:27;7.40;99.90
20658;DHT22;10488;50.846;4.078;2023-02-01T00:27:54;7.50;99.90
20658;DHT22;10488;50.846;4.078;2023-02-01T00:30:23;7.70;99.90
20658;DHT22;10488;50.846;4.078;2023-02-01T00:32:48;7.60;99.90
20658;DHT22;10488;50.846;4.078;2023-02-01T00:35:14;7.50;99.90
20658;DHT22;10488;50.846;4.078;2023-02-01T00:37:40;7.50;99.90
20658;DHT22;10488;50.846;4.078;2023-02-01T00:40:07;7.50;99.90
20658;DHT22;10488;50.846;4.078;2023-02-01T00:42:36;7.60;99.90
20658;DHT22;10488;50.846;4.078;2023-02-01T00:45:01;7.60;99.90
20658;DHT22;10488;50.846;4.078;2023-02-01T00:47:27;7.70;99.90
20658;DHT22;10488;50.846;4.078;2023-02-01T00:49:53;7.50;99.90
20658;DHT22;10488;50.846;4.078;2023-02-01T00:52:25;7.40;99.90
20658;DHT22;10488;50.846;4.078;2023-02-01T00:54:52;7.50;99.90
20658;DHT22;10488;50.846;4.078;2023-02-01T00:57:20;7.40;99.90
20658;DHT22;10488;50.846;4.078;2023-02-01T00:59:47;7.30;99.90
20658;DHT22;10488;50.846;4.078;2023-02-01T01:02:13;7.30;99.90
20658;DHT22;10488;50.846;4.078;2023-02-01T01:04:40;7.40;99.90
20658;DHT22;10488;50.846;4.078;2023-02-01T01:07:08;7.30;99.90
20658;DHT22;10488;50.846;4.078;2023-02-01T01:09:34;7.20;99.90
20658;DHT22;10488;50.846;4.078;2023-02-01T01:12:00;7.20;99.90
20658;DHT22;10488;50.846;4.078;2023-02-01T01:14:29;7.20;99.90
20658;DHT22;10488;50.846;4.078;2023-02-01T01:16:56;7.20;99.90
20658;DHT22;10488;50.846;4.078;2023-02-01T01:19:23;7.30;99.90
20658;DHT22;10488;50.846;4.078;2023-02-01T01:21:49;7.30;99.90
20658;DHT22;10488;50.846;4.078;2023-02-01T01:24:16;7.20;99.90
20658;DHT22;10488;50.846;4.078;2023-02-01T01:26:43;7.20;99.90
20658;DHT22;10488;50.846;4.078;2023-02-01T01:29:09;7.20;99.90
20658;DHT22;10488;50.846;4.078;2023-02-01T01:31:36;7.30;99.90
20658;DHT22;10488;50.846;4.078;2023-02-01T01:34:01;7.20;99.90
20658;DHT22;10488;50.846;4.078;2023-02-01T01:36:29;7.20;99.90
20658;DHT22;10488;50.846;4.078;2023-02-01T01:38:56;7.20;99.90
20658;DHT22;10488;50.846;4.078;2023-02-01T01:41:28;7.40;99.90
20658;DHT22;10488;50.846;4.078;2023-02-01T01:46:30;7.50;99.90
20658;DHT22;10488;50.846;4.078;2023-02-01T01:49:08;7.50;99.90
20658;DHT22;10488;50.846;4.078;2023-02-01T01:51:46;7.40;99.90
20658;DHT22;10488;50.846;4.078;2023-02-01T01:54:45;7.50;99.90
20658;DHT22;10488;50.846;4.078;2023-02-01T01:57:41;7.50;99.90
20658;DHT22;10488;50.846;4.078;2023-02-01T02:00:14;7.50;99.90
20658;DHT22;10488;50.846;4.078;2023-02-01T02:02:44;7.40;99.90
20658;DHT22;10488;50.846;4.078;2023-02-01T02:05:15;7.20;99.90
20658;DHT22;10488;50.846;4.078;2023-02-01T02:07:45;7.10;99.90
20658;DHT22;10488;50.846;4.078;2023-02-01T02:10:14;7.10;99.90
20658;DHT22;10488;50.846;4.078;2023-02-01T02:12:43;7.00;99.90
20658;DHT22;10488;50.846;4.078;2023-02-01T02:15:12;7.20;99.90
20658;DHT22;10488;50.846;4.078;2023-02-01T02:26:21;7.40;99.90
20658;DHT22;10488;50.846;4.078;2023-02-01T02:34:34;7.40;99.90
20658;DHT22;10488;50.846;4.078;2023-02-01T02:45:44;7.40;99.90
20658;DHT22;10488;50.846;4.078;2023-02-01T02:48:47;7.40;99.90
20658;DHT22;10488;50.846;4.078;2023-02-01T02:51:25;7.10;99.90
20658;DHT22;10488;50.846;4.078;2023-02-01T02:54:23;7.10;99.90
20658;DHT22;10488;50.846;4.078;2023-02-01T02:57:30;7.10;99.90
20658;DHT22;10488;50.846;4.078;2023-02-01T03:00:19;6.90;99.90
20658;DHT22;10488;50.846;4.078;2023-02-01T03:03:04;6.80;99.90
20658;DHT22;10488;50.846;4.078;2023-02-01T03:05:50;6.80;99.90
20658;DHT22;10488;50.846;4.078;2023-02-01T03:08:20;6.60;99.90
20658;DHT22;10488;50.846;4.078;2023-02-01T03:11:02;6.60;99.90
20658;DHT22;10488;50.846;4.078;2023-02-01T03:13:48;6.70;99.90
20658;DHT22;10488;50.846;4.078;2023-02-01T03:19:02;6.30;99.90
20658;DHT22;10488;50.846;4.078;2023-02-01T03:21:43;6.30;99.90
20658;DHT22;10488;50.846;4.078;2023-02-01T03:24:38;6.30;99.90
20658;DHT22;10488;50.846;4.078;2023-02-01T03:27:13;6.20;99.90
20658;DHT22;10488;50.846;4.078;2023-02-01T03:29:52;6.30;99.90
20658;DHT22;10488;50.846;4.078;2023-02-01T03:32:19;6.10;99.90
20658;DHT22;10488;50.846;4.078;2023-02-01T03:34:47;6.00;99.90
20658;DHT22;10488;50.846;4.078;2023-02-01T03:37:17;6.10;99.90
20658;DHT22;10488;50.846;4.078;2023-02-01T03:40:07;6.10;99.90
20658;DHT22;10488;50.846;4.078;2023-02-01T03:42:47;6.20;99.90
20658;DHT22;10488;50.846;4.078;2023-02-01T03:45:18;6.10;99.90
20658;DHT22;10488;50.846;4.078;2023-02-01T03:47:49;6.10;99.90
20658;DHT22;10488;50.846;4.078;2023-02-01T03:50:24;5.90;99.90
20658;DHT22;10488;50.846;4.078;2023-02-01T03:55:21;5.90;99.90
20658;DHT22;10488;50.846;4.078;2023-02-01T03:58:03;5.80;99.90
20658;DHT22;10488;50.846;4.078;2023-02-01T04:00:32;5.80;99.90
20658;DHT22;10488;50.846;4.078;2023-02-01T04:02:59;5.90;99.90
20658;DHT22;10488;50.846;4.078;2023-02-01T04:05:25;6.00;99.90
20658;DHT22;10488;50.846;4.078;2023-02-01T04:07:51;5.90;99.90
20658;DHT22;10488;50.846;4.078;2023-02-01T04:10:18;5.80;99.90
20658;DHT22;10488;50.846;4.078;2023-02-01T04:12:44;5.80;99.90
20658;DHT22;10488;50.846;4.078;2023-02-01T04:15:13;5.70;99.90
20658;DHT22;10488;50.846;4.078;2023-02-01T04:17:41;5.70;99.90
20658;DHT22;10488;50.846;4.078;2023-02-01T04:20:08;5.60;99.90
20658;DHT22;10488;50.846;4.078;2023-02-01T04:22:34;5.50;99.90
20658;DHT22;10488;50.846;4.078;2023-02-01T04:25:01;5.40;99.90
20658;DHT22;10488;50.846;4.078;2023-02-01T04:27:28;5.50;99.90
20658;DHT22;10488;50.846;4.078;2023-02-01T04:29:53;5.50;99.90
20658;DHT22;10488;50.846;4.078;2023-02-01T04:32:19;5.40;99.90
20658;DHT22;10488;50.846;4.078;2023-02-01T04:34:46;5.30;99.90
20658;DHT22;10488;50.846;4.078;2023-02-01T04:37:13;5.40;99.90
20658;DHT22;10488;50.846;4.078;2023-02-01T04:39:42;5.40;99.90
20658;DHT22;10488;50.846;4.078;2023-02-01T04:42:08;5.50;99.90
20658;DHT22;10488;50.846;4.078;2023-02-01T04:44:34;5.50;99.90
20658;DHT22;10488;50.846;4.078;2023-02-01T04:47:02;5.40;99.90
20658;DHT22;10488;50.846;4.078;2023-02-01T04:49:29;5.40;99.90
20658;DHT22;10488;50.846;4.078;2023-02-01T04:51:55;5.30;99.90
20658;DHT22;10488;50.846;4.078;2023-02-01T04:54:22;5.20;99.90
20658;DHT22;10488;50.846;4.078;2023-02-01T04:56:48;5.20;99.90
20658;DHT22;10488;50.846;4.078;2023-02-01T04:59:15;5.30;99.90
20658;DHT22;10488;50.846;4.078;2023-02-01T05:01:41;5.40;99.90
20658;DHT22;10488;50.846;4.078;2023-02-01T05:04:10;5.40;99.90
20658;DHT22;10488;50.846;4.078;2023-02-01T05:06:37;5.30;99.90
20658;DHT22;10488;50.846;4.078;2023-02-01T05:09:02;5.40;99.90
20658;DHT22;10488;50.846;4.078;2023-02-01T05:11:29;5.30;99.90
20658;DHT22;10488;50.846;4.078;2023-02-01T05:14:13;5.20;99.90
20658;DHT22;10488;50.846;4.078;2023-02-01T05:16:40;5.10;99.90
20658;DHT22;10488;50.846;4.078;2023-02-01T05:19:06;4.90;99.90
20658;DHT22;10488;50.846;4.078;2023-02-01T05:21:33;5.00;99.90
20658;DHT22;10488;50.846;4.078;2023-02-01T05:24:00;5.10;99.90
20658;DHT22;10488;50.846;4.078;2023-02-01T05:26:46;5.20;99.90
20658;DHT22;10488;50.846;4.078;2023-02-01T05:29:13;5.20;99.90
20658;DHT22;10488;50.846;4.078;2023-02-01T05:31:39;5.20;99.90
20658;DHT22;10488;50.846;4.078;2023-02-01T05:34:05;5.10;99.90
20658;DHT22;10488;50.846;4.078;2023-02-01T05:36:32;5.00;99.90
20658;DHT22;10488;50.846;4.078;2023-02-01T05:38:59;5.00;99.90
20658;DHT22;10488;50.846;4.078;2023-02-01T05:41:25;5.00;99.90
20658;DHT22;10488;50.846;4.078;2023-02-01T05:43:52;5.10;99.90
20658;DHT22;10488;50.846;4.078;2023-02-01T05:46:20;5.00;99.90
20658;DHT22;10488;50.846;4.078;2023-02-01T05:48:45;4.80;99.90
20658;DHT22;10488;50.846;4.078;2023-02-01T05:51:11;4.80;99.90
20658;DHT22;10488;50.846;4.078;2023-02-01T05:53:43;5.00;99.90
20658;DHT22;10488;50.846;4.078;2023-02-01T05:56:09;5.00;99.90
20658;DHT22;10488;50.846;4.078;2023-02-01T05:58:34;5.10;99.90
20658;DHT22;10488;50.846;4.078;2023-02-01T06:01:02;5.00;99.90
20658;DHT22;10488;50.846;4.078;2023-02-01T06:03:29;4.80;99.90
20658;DHT22;10488;50.846;4.078;2023-02-01T06:05:55;4.70;99.90
20658;DHT22;10488;50.846;4.078;2023-02-01T06:08:23;4.70;99.90
20658;DHT22;10488;50.846;4.078;2023-02-01T06:10:58;4.50;99.90
20658;DHT22;10488;50.846;4.078;2023-02-01T06:13:25;4.60;99.90
20658;DHT22;10488;50.846;4.078;2023-02-01T06:15:50;4.70;99.90
20658;DHT22;10488;50.846;4.078;2023-02-01T06:18:16;4.80;99.90
20658;DHT22;10488;50.846;4.078;2023-02-01T06:20:42;4.80;99.90
20658;DHT22;10488;50.846;4.078;2023-02-01T06:23:09;4.80;99.90
20658;DHT22;10488;50.846;4.078;2023-02-01T06:25:34;4.80;99.90
20658;DHT22;10488;50.846;4.078;2023-02-01T06:28:03;4.70;99.90
20658;DHT22;10488;50.846;4.078;2023-02-01T06:30:32;4.80;99.90
20658;DHT22;10488;50.846;4.078;2023-02-01T06:32:58;4.80;99.90
20658;DHT22;10488;50.846;4.078;2023-02-01T06:35:26;4.80;99.90
20658;DHT22;10488;50.846;4.078;2023-02-01T06:37:53;4.70;99.90
20658;DHT22;10488;50.846;4.078;2023-02-01T06:40:20;4.60;99.90
20658;DHT22;10488;50.846;4.078;2023-02-01T06:42:48;4.40;99.90
20658;DHT22;10488;50.846;4.078;2023-02-01T06:45:16;4.50;99.90
20658;DHT22;10488;50.846;4.078;2023-02-01T06:47:43;4.70;99.90
20658;DHT22;10488;50.846;4.078;2023-02-01T06:50:11;4.50;99.90
20658;DHT22;10488;50.846;4.078;2023-02-01T06:52:38;4.60;99.90
20658;DHT22;10488;50.846;4.078;2023-02-01T06:55:06;4.60;99.90
20658;DHT22;10488;50.846;4.078;2023-02-01T06:57:33;4.60;99.90
20658;DHT22;10488;50.846;4.078;2023-02-01T07:00:03;4.70;99.90
20658;DHT22;10488;50.846;4.078;2023-02-01T07:02:29;4.80;99.90
20658;DHT22;10488;50.846;4.078;2023-02-01T07:04:55;4.80;99.90
20658;DHT22;10488;50.846;4.078;2023-02-01T07:07:22;4.70;99.90
20658;DHT22;10488;50.846;4.078;2023-02-01T07:10:14;4.50;99.90
20658;DHT22;10488;50.846;4.078;2023-02-01T07:12:50;4.60;99.90
20658;DHT22;10488;50.846;4.078;2023-02-01T07:15:18;4.70;99.90
20658;DHT22;10488;50.846;4.078;2023-02-01T07:17:45;4.60;99.90
20658;DHT22;10488;50.846;4.078;2023-02-01T07:20:13;4.60;99.90
20658;DHT22;10488;50.846;4.078;2023-02-01T07:22:39;4.50;99.90
20658;DHT22;10488;50.846;4.078;2023-02-01T07:25:05;4.70;99.90
20658;DHT22;10488;50.846;4.078;2023-02-01T07:27:35;4.80;99.90
20658;DHT22;10488;50.846;4.078;2023-02-01T07:30:05;4.80;99.90
20658;DHT22;10488;50.846;4.078;2023-02-01T07:32:31;4.80;99.90
20658;DHT22;10488;50.846;4.078;2023-02-01T07:34:57;4.70;99.90
20658;DHT22;10488;50.846;4.078;2023-02-01T07:37:25;4.70;99.90
20658;DHT22;10488;50.846;4.078;2023-02-01T07:39:52;4.80;99.90
20658;DHT22;10488;50.846;4.078;2023-02-01T07:42:18;4.80;99.90
20658;DHT22;10488;50.846;4.078;2023-02-01T07:44:44;4.90;99.90
20658;DHT22;10488;50.846;4.078;2023-02-01T07:47:09;5.00;99.90
20658;DHT22;10488;50.846;4.078;2023-02-01T07:49:35;5.10;99.90
20658;DHT22;10488;50.846;4.078;2023-02-01T07:52:02;5.20;99.90
20658;DHT22;10488;50.846;4.078;2023-02-01T07:54:28;5.30;99.90
20658;DHT22;10488;50.846;4.078;2023-02-01T07:56:54;5.40;99.90
20658;DHT22;10488;50.846;4.078;2023-02-01T07:59:20;5.50;99.90
20658;DHT22;10488;50.846;4.078;2023-02-01T08:01:47;5.60;99.90
20658;DHT22;10488;50.846;4.078;2023-02-01T08:04:15;5.60;99.90
20658;DHT22;10488;50.846;4.078;2023-02-01T08:06:41;5.60;99.90
20658;DHT22;10488;50.846;4.078;2023-02-01T08:09:08;5.60;99.90
20658;DHT22;10488;50.846;4.078;2023-02-01T08:11:35;5.70;99.90
20658;DHT22;10488;50.846;4.078;2023-02-01T08:14:03;5.60;99.90
20658;DHT22;10488;50.846;4.078;2023-02-01T08:16:30;5.80;99.90
20658;DHT22;10488;50.846;4.078;2023-02-01T08:18:58;5.90;99.90
20658;DHT22;10488;50.846;4.078;2023-02-01T08:21:26;5.90;99.90
20658;DHT22;10488;50.846;4.078;2023-02-01T08:24:04;5.90;99.90
20658;DHT22;10488;50.846;4.078;2023-02-01T08:26:32;5.90;99.90
20658;DHT22;10488;50.846;4.078;2023-02-01T08:29:00;5.80;99.90
20658;DHT22;10488;50.846;4.078;2023-02-01T08:31:28;5.70;99.90
20658;DHT22;10488;50.846;4.078;2023-02-01T08:33:58;5.90;99.90
20658;DHT22;10488;50.846;4.078;2023-02-01T08:36:27;6.00;99.90
20658;DHT22;10488;50.846;4.078;2023-02-01T08:38:53;6.10;99.90
20658;DHT22;10488;50.846;4.078;2023-02-01T08:41:22;6.20;99.90
20658;DHT22;10488;50.846;4.078;2023-02-01T08:43:48;6.40;99.90
20658;DHT22;10488;50.846;4.078;2023-02-01T08:46:15;6.30;99.90
20658;DHT22;10488;50.846;4.078;2023-02-01T08:48:41;6.30;99.90
20658;DHT22;10488;50.846;4.078;2023-02-01T08:51:09;6.30;99.90
20658;DHT22;10488;50.846;4.078;2023-02-01T08:53:35;6.20;99.90
20658;DHT22;10488;50.846;4.078;2023-02-01T08:56:01;6.20;99.90
20658;DHT22;10488;50.846;4.078;2023-02-01T08:58:28;6.20;99.90
20658;DHT22;10488;50.846;4.078;2023-02-01T09:00:55;6.30;99.90
20658;DHT22;10488;50.846;4.078;2023-02-01T09:03:22;6.50;99.90
20658;DHT22;10488;50.846;4.078;2023-02-01T09:05:49;6.40;99.90
20658;DHT22;10488;50.846;4.078;2023-02-01T09:08:15;6.50;99.90
20658;DHT22;10488;50.846;4.078;2023-02-01T09:10:42;6.60;99.90
20658;DHT22;10488;50.846;4.078;2023-02-01T09:13:09;6.60;99.90
20658;DHT22;10488;50.846;4.078;2023-02-01T09:15:35;6.60;99.90
20658;DHT22;10488;50.846;4.078;2023-02-01T09:18:01;6.90;99.90
20658;DHT22;10488;50.846;4.078;2023-02-01T09:20:27;6.90;99.90
20658;DHT22;10488;50.846;4.078;2023-02-01T09:22:55;6.80;99.90
20658;DHT22;10488;50.846;4.078;2023-02-01T09:25:21;7.00;99.90
20658;DHT22;10488;50.846;4.078;2023-02-01T09:27:52;7.10;99.90
20658;DHT22;10488;50.846;4.078;2023-02-01T09:30:18;7.30;99.90
20658;DHT22;10488;50.846;4.078;2023-02-01T09:32:44;7.20;99.90
20658;DHT22;10488;50.846;4.078;2023-02-01T09:35:10;7.10;99.90
20658;DHT22;10488;50.846;4.078;2023-02-01T09:37:36;7.20;99.90
20658;DHT22;10488;50.846;4.078;2023-02-01T09:40:04;7.20;99.90
20658;DHT22;10488;50.846;4.078;2023-02-01T09:48:03;7.40;99.90
20658;DHT22;10488;50.846;4.078;2023-02-01T09:50:43;7.40;99.90
20658;DHT22;10488;50.846;4.078;2023-02-01T09:53:27;7.40;99.90
20658;DHT22;10488;50.846;4.078;2023-02-01T09:56:00;7.40;99.90
20658;DHT22;10488;50.846;4.078;2023-02-01T09:58:35;7.70;99.90
20658;DHT22;10488;50.846;4.078;2023-02-01T10:01:04;7.80;99.90
20658;DHT22;10488;50.846;4.078;2023-02-01T10:03:35;7.80;99.90
20658;DHT22;10488;50.846;4.078;2023-02-01T10:08:57;7.90;99.90
20658;DHT22;10488;50.846;4.078;2023-02-01T10:27:41;8.40;99.90
20658;DHT22;10488;50.846;4.078;2023-02-01T10:30:31;8.40;99.90
20658;DHT22;10488;50.846;4.078;2023-02-01T10:33:15;8.60;99.90
20658;DHT22;10488;50.846;4.078;2023-02-01T10:36:05;8.80;99.90
20658;DHT22;10488;50.846;4.078;2023-02-01T10:38:39;8.90;99.90
20658;DHT22;10488;50.846;4.078;2023-02-01T10:41:19;8.90;99.90
20658;DHT22;10488;50.846;4.078;2023-02-01T10:43:48;9.00;99.90
20658;DHT22;10488;50.846;4.078;2023-02-01T10:46:16;9.00;99.90
20658;DHT22;10488;50.846;4.078;2023-02-01T10:48:42;8.90;99.90
20658;DHT22;10488;50.846;4.078;2023-02-01T10:51:14;9.10;99.90
20658;DHT22;10488;50.846;4.078;2023-02-01T10:53:55;9.10;99.90
20658;DHT22;10488;50.846;4.078;2023-02-01T10:56:24;9.30;99.90
20658;DHT22;10488;50.846;4.078;2023-02-01T10:59:03;9.40;99.90
20658;DHT22;10488;50.846;4.078;2023-02-01T11:01:36;9.80;99.90
20658;DHT22;10488;50.846;4.078;2023-02-01T11:04:05;10.10;99.90
20658;DHT22;10488;50.846;4.078;2023-02-01T11:06:46;10.10;99.90
20658;DHT22;10488;50.846;4.078;2023-02-01T11:09:24;10.10;99.90
20658;DHT22;10488;50.846;4.078;2023-02-01T11:14:20;10.20;99.90
20658;DHT22;10488;50.846;4.078;2023-02-01T11:16:58;10.20;99.90
20658;DHT22;10488;50.846;4.078;2023-02-01T11:19:26;9.80;99.90
20658;DHT22;10488;50.846;4.078;2023-02-01T11:21:54;9.70;99.90
20658;DHT22;10488;50.846;4.078;2023-02-01T11:24:26;9.80;99.90
20658;DHT22;10488;50.846;4.078;2023-02-01T11:26:56;10.00;99.90
20658;DHT22;10488;50.846;4.078;2023-02-01T11:29:23;10.00;99.90
20658;DHT22;10488;50.846;4.078;2023-02-01T11:31:59;10.00;99.90
20658;DHT22;10488;50.846;4.078;2023-02-01T11:34:45;10.00;99.90
20658;DHT22;10488;50.846;4.078;2023-02-01T11:37:23;9.80;99.90
20658;DHT22;10488;50.846;4.078;2023-02-01T11:39:58;9.90;99.90
20658;DHT22;10488;50.846;4.078;2023-02-01T11:42:25;9.70;99.90
20658;DHT22;10488;50.846;4.078;2023-02-01T11:44:51;9.80;99.90
20658;DHT22;10488;50.846;4.078;2023-02-01T11:47:28;9.50;99.90
20658;DHT22;10488;50.846;4.078;2023-02-01T11:50:02;9.40;99.90
20658;DHT22;10488;50.846;4.078;2023-02-01T11:58:37;9.30;99.90
20658;DHT22;10488;50.846;4.078;2023-02-01T12:01:26;9.30;99.90
20658;DHT22;10488;50.846;4.078;2023-02-01T12:06:51;9.70;99.90
20658;DHT22;10488;50.846;4.078;2023-02-01T12:14:51;10.10;99.90
20658;DHT22;10488;50.846;4.078;2023-02-01T12:37:04;10.70;99.90
20658;DHT22;10488;50.846;4.078;2023-02-01T12:39:40;10.80;99.90
20658;DHT22;10488;50.846;4.078;2023-02-01T12:44:52;10.90;99.90
20658;DHT22;10488;50.846;4.078;2023-02-01T12:47:27;11.10;99.90
20658;DHT22;10488;50.846;4.078;2023-02-01T12:49:58;11.00;99.90
20658;DHT22;10488;50.846;4.078;2023-02-01T12:52:44;11.20;99.90
20658;DHT22;10488;50.846;4.078;2023-02-01T12:55:23;11.10;99.90
20658;DHT22;10488;50.846;4.078;2023-02-01T13:00:59;10.60;99.90
20658;DHT22;10488;50.846;4.078;2023-02-01T13:03:49;10.60;99.90
20658;DHT22;10488;50.846;4.078;2023-02-01T13:06:35;10.90;99.90
20658;DHT22;10488;50.846;4.078;2023-02-01T13:10:03;11.00;99.90
20658;DHT22;10488;50.846;4.078;2023-02-01T13:12:32;10.70;99.90
20658;DHT22;10488;50.846;4.078;2023-02-01T13:15:20;10.70;99.90
20658;DHT22;10488;50.846;4.078;2023-02-01T13:17:49;10.70;99.90
20658;DHT22;10488;50.846;4.078;2023-02-01T13:20:23;10.80;99.90
20658;DHT22;10488;50.846;4.078;2023-02-01T13:22:54;10.80;99.90
20658;DHT22;10488;50.846;4.078;2023-02-01T13:25:38;10.80;99.90
20658;DHT22;10488;50.846;4.078;2023-02-01T13:28:15;10.80;99.90
20658;DHT22;10488;50.846;4.078;2023-02-01T13:33:46;10.70;99.90
20658;DHT22;10488;50.846;4.078;2023-02-01T13:39:20;10.90;99.90
20658;DHT22;10488;50.846;4.078;2023-02-01T13:42:17;10.90;99.90
20658;DHT22;10488;50.846;4.078;2023-02-01T13:44:52;11.10;99.90
20658;DHT22;10488;50.846;4.078;2023-02-01T13:47:31;11.20;99.90
20658;DHT22;10488;50.846;4.078;2023-02-01T13:50:04;11.30;99.90
20658;DHT22;10488;50.846;4.078;2023-02-01T13:52:42;11.10;99.90
20658;DHT22;10488;50.846;4.078;2023-02-01T13:57:48;10.90;99.90
20658;DHT22;10488;50.846;4.078;2023-02-01T14:00:29;11.00;99.90
20658;DHT22;10488;50.846;4.078;2023-02-01T14:13:38;11.10;99.90
20658;DHT22;10488;50.846;4.078;2023-02-01T14:23:42;11.00;99.90
20658;DHT22;10488;50.846;4.078;2023-02-01T14:26:26;11.10;99.90
20658;DHT22;10488;50.846;4.078;2023-02-01T14:31:32;11.40;99.90
20658;DHT22;10488;50.846;4.078;2023-02-01T14:34:02;11.40;99.90
20658;DHT22;10488;50.846;4.078;2023-02-01T14:36:44;11.40;99.90
20658;DHT22;10488;50.846;4.078;2023-02-01T14:39:26;11.40;99.90
20658;DHT22;10488;50.846;4.078;2023-02-01T14:42:02;11.30;99.90
20658;DHT22;10488;50.846;4.078;2023-02-01T14:44:34;11.10;99.90
20658;DHT22;10488;50.846;4.078;2023-02-01T14:49:34;11.00;99.90
20658;DHT22;10488;50.846;4.078;2023-02-01T14:52:06;10.90;99.90
20658;DHT22;10488;50.846;4.078;2023-02-01T14:54:39;10.90;99.90
20658;DHT22;10488;50.846;4.078;2023-02-01T14:57:15;10.60;99.90
20658;DHT22;10488;50.846;4.078;2023-02-01T14:59:41;10.50;99.90
20658;DHT22;10488;50.846;4.078;2023-02-01T15:02:24;10.50;99.90
20658;DHT22;10488;50.846;4.078;2023-02-01T15:04:56;10.30;99.90
20658;DHT22;10488;50.846;4.078;2023-02-01T15:07:24;10.20;99.90
20658;DHT22;10488;50.846;4.078;2023-02-01T15:09:54;10.30;99.90
20658;DHT22;10488;50.846;4.078;2023-02-01T15:12:26;10.40;99.90
20658;DHT22;10488;50.846;4.078;2023-02-01T15:15:22;10.40;99.90
20658;DHT22;10488;50.846;4.078;2023-02-01T15:17:55;10.40;99.90
20658;DHT22;10488;50.846;4.078;2023-02-01T15:20:24;10.30;99.90
20658;DHT22;10488;50.846;4.078;2023-02-01T15:22:58;10.20;99.90
20658;DHT22;10488;50.846;4.078;2023-02-01T15:25:33;10.30;99.90
20658;DHT22;10488;50.846;4.078;2023-02-01T15:28:02;10.30;99.90
20658;DHT22;10488;50.846;4.078;2023-02-01T15:30:30;10.20;99.90
20658;DHT22;10488;50.846;4.078;2023-02-01T15:40:55;10.30;99.90
20658;DHT22;10488;50.846;4.078;2023-02-01T15:43:21;10.20;99.90
20658;DHT22;10488;50.846;4.078;2023-02-01T15:45:48;10.30;99.90
20658;DHT22;10488;50.846;4.078;2023-02-01T15:48:21;10.20;99.90
20658;DHT22;10488;50.846;4.078;2023-02-01T15:50:47;10.00;99.90
20658;DHT22;10488;50.846;4.078;2023-02-01T15:53:19;9.90;99.90
20658;DHT22;10488;50.846;4.078;2023-02-01T15:55:52;9.90;99.90
20658;DHT22;10488;50.846;4.078;2023-02-01T15:58:23;10.00;99.90
20658;DHT22;10488;50.846;4.078;2023-02-01T16:01:00;10.10;99.90
20658;DHT22;10488;50.846;4.078;2023-02-01T16:03:40;10.10;99.90
20658;DHT22;10488;50.846;4.078;2023-02-01T16:06:32;10.20;99.90
20658;DHT22;10488;50.846;4.078;2023-02-01T16:09:01;10.10;99.90
20658;DHT22;10488;50.846;4.078;2023-02-01T16:11:32;9.80;99.90
20658;DHT22;10488;50.846;4.078;2023-02-01T16:14:00;9.90;99.90
20658;DHT22;10488;50.846;4.078;2023-02-01T16:16:28;9.80;99.90
20658;DHT22;10488;50.846;4.078;2023-02-01T16:18:59;9.80;99.90
20658;DHT22;10488;50.846;4.078;2023-02-01T16:21:25;9.80;99.90
20658;DHT22;10488;50.846;4.078;2023-02-01T16:23:52;9.90;99.90
20658;DHT22;10488;50.846;4.078;2023-02-01T16:26:19;9.80;99.90
20658;DHT22;10488;50.846;4.078;2023-02-01T16:28:47;9.70;99.90
20658;DHT22;10488;50.846;4.078;2023-02-01T16:31:17;9.80;99.90
20658;DHT22;10488;50.846;4.078;2023-02-01T16:33:51;9.80;99.90
20658;DHT22;10488;50.846;4.078;2023-02-01T16:36:17;9.80;99.90
20658;DHT22;10488;50.846;4.078;2023-02-01T16:38:44;9.70;99.90
20658;DHT22;10488;50.846;4.078;2023-02-01T16:41:13;9.80;99.90
20658;DHT22;10488;50.846;4.078;2023-02-01T16:43:39;9.70;99.90
20658;DHT22;10488;50.846;4.078;2023-02-01T16:46:14;9.60;99.90
20658;DHT22;10488;50.846;4.078;2023-02-01T16:48:44;9.50;99.90
20658;DHT22;10488;50.846;4.078;2023-02-01T16:51:13;9.70;99.90
20658;DHT22;10488;50.846;4.078;2023-02-01T16:53:42;9.60;99.90
20658;DHT22;10488;50.846;4.078;2023-02-01T16:56:16;9.50;99.90
20658;DHT22;10488;50.846;4.078;2023-02-01T16:58:43;9.50;99.90
20658;DHT22;10488;50.846;4.078;2023-02-01T17:01:11;9.40;99.90
20658;DHT22;10488;50.846;4.078;2023-02-01T17:03:39;9.50;99.90
20658;DHT22;10488;50.846;4.078;2023-02-01T17:06:06;9.40;99.90
20658;DHT22;10488;50.846;4.078;2023-02-01T17:08:34;9.30;99.90
20658;DHT22;10488;50.846;4.078;2023-02-01T17:11:03;9.20;99.90
20658;DHT22;10488;50.846;4.078;2023-02-01T17:13:29;9.30;99.90
20658;DHT22;10488;50.846;4.078;2023-02-01T17:16:00;9.30;99.90
20658;DHT22;10488;50.846;4.078;2023-02-01T17:18:31;9.40;99.90
20658;DHT22;10488;50.846;4.078;2023-02-01T17:21:00;9.50;99.90
20658;DHT22;10488;50.846;4.078;2023-02-01T17:23:27;9.40;99.90
20658;DHT22;10488;50.846;4.078;2023-02-01T17:25:55;9.40;99.90
20658;DHT22;10488;50.846;4.078;2023-02-01T17:28:22;9.40;99.90
20658;DHT22;10488;50.846;4.078;2023-02-01T17:30:49;9.40;99.90
20658;DHT22;10488;50.846;4.078;2023-02-01T17:33:26;9.40;99.90
20658;DHT22;10488;50.846;4.078;2023-02-01T17:35:55;9.40;99.90
20658;DHT22;10488;50.846;4.078;2023-02-01T17:38:24;9.50;99.90
20658;DHT22;10488;50.846;4.078;2023-02-01T17:40:50;9.40;99.90
20658;DHT22;10488;50.846;4.078;2023-02-01T17:43:21;9.30;99.90
20658;DHT22;10488;50.846;4.078;2023-02-01T17:48:16;9.40;99.90
20658;DHT22;10488;50.846;4.078;2023-02-01T17:50:44;9.30;99.90
20658;DHT22;10488;50.846;4.078;2023-02-01T17:53:12;9.20;99.90
20658;DHT22;10488;50.846;4.078;2023-02-01T17:55:44;9.20;99.90
20658;DHT22;10488;50.846;4.078;2023-02-01T17:58:14;9.20;99.90
20658;DHT22;10488;50.846;4.078;2023-02-01T18:00:40;9.30;99.90
20658;DHT22;10488;50.846;4.078;2023-02-01T18:03:08;9.20;99.90
20658;DHT22;10488;50.846;4.078;2023-02-01T18:05:41;9.20;99.90
20658;DHT22;10488;50.846;4.078;2023-02-01T18:08:09;9.40;99.90
20658;DHT22;10488;50.846;4.078;2023-02-01T18:10:35;9.50;99.90
20658;DHT22;10488;50.846;4.078;2023-02-01T18:13:05;9.30;99.90
20658;DHT22;10488;50.846;4.078;2023-02-01T18:15:30;9.10;99.90
20658;DHT22;10488;50.846;4.078;2023-02-01T18:17:57;9.10;99.90
20658;DHT22;10488;50.846;4.078;2023-02-01T18:20:24;9.20;99.90
20658;DHT22;10488;50.846;4.078;2023-02-01T18:22:51;9.20;99.90
20658;DHT22;10488;50.846;4.078;2023-02-01T18:25:21;9.10;99.90